Time;durP1;ratioP1;P1;durP2;ratioP2;P2;SDS_P1;SDS_P2;PMS_P1;PMS_P2;Temp;Humidity;BMP_temperature;BMP_pressure;BME280_temperature;BME280_humidity;BME280_pressure;Samples;Min_cycle;Max_cycle;Signal;HPM_P1;HPM_P2
2023/11/25 00:00:43;;;;;;;;;;;;;;;7.82;nan;99803.94;5039021;28;19917;-85
2023/11/25 00:03:09;;;;;;;;;;;;;;;7.77;nan;99803.91;5025070;28;19936;-85
2023/11/25 00:05:34;;;;;;;;;;;;;;;7.73;nan;99799.34;5041715;28;20133;-84
2023/11/25 00:08:00;;;;;;;;;;;;;;;7.71;nan;99801.44;5040438;28;19956;-84
2023/11/25 00:10:25;;;;;;;;;;;;;;;7.71;nan;99826.22;5040734;28;20407;-85
2023/11/25 00:12:52;;;;;;;;;;;;;;;7.71;nan;99825.41;5023819;28;20501;-84
2023/11/25 00:15:17;;;;;;;;;;;;;;;7.69;nan;99832.88;5038480;28;20015;-84
2023/11/25 00:17:42;;;;;;;;;;;;;;;7.66;nan;99833.38;5039466;28;20004;-84
2023/11/25 00:20:08;;;;;;;;;;;;;;;7.66;nan;99844.84;5038398;28;20020;-84
2023/11/25 00:22:34;;;;;;;;;;;;;;;7.66;nan;99844.03;5039418;28;19917;-85
2023/11/25 00:24:59;;;;;;;;;;;;;;;7.62;nan;99843.75;5037581;28;19921;-84
2023/11/25 00:27:25;;;;;;;;;;;;;;;7.61;nan;99844.81;5040117;28;19920;-85
2023/11/25 00:29:50;;;;;;;;;;;;;;;7.61;nan;99844.00;5042640;28;19948;-86
2023/11/25 00:32:15;;;;;;;;;;;;;;;7.61;nan;99852.81;5042226;28;19920;-85
2023/11/25 00:34:41;;;;;;;;;;;;;;;7.61;nan;99846.66;5041388;28;19951;-85
2023/11/25 00:37:08;;;;;;;;;;;;;;;7.62;nan;99845.59;5042088;28;19952;-84
2023/11/25 00:39:33;;;;;;;;;;;;;;;7.61;nan;99847.47;5039400;28;19920;-84
2023/11/25 00:41:59;;;;;;;;;;;;;;;7.62;nan;99848.28;5039837;28;20677;-84
2023/11/25 00:44:24;;;;;;;;;;;;;;;7.61;nan;99850.13;5038104;28;19917;-84
2023/11/25 00:46:50;;;;;;;;;;;;;;;7.62;nan;99861.59;5041326;28;19925;-85
2023/11/25 00:49:15;;;;;;;;;;;;;;;7.55;nan;99870.59;5040588;28;19932;-85
2023/11/25 00:51:44;;;;;;;;;;;;;;;7.55;nan;99870.59;5028198;28;19921;-85
2023/11/25 00:54:10;;;;;;;;;;;;;;;7.55;nan;99873.28;5034140;28;19945;-85
2023/11/25 00:56:35;;;;;;;;;;;;;;;7.53;nan;99871.88;5035898;28;19925;-85
2023/11/25 00:59:00;;;;;;;;;;;;;;;7.55;nan;99875.13;5037387;28;19924;-85
2023/11/25 01:01:26;;;;;;;;;;;;;;;7.56;nan;99877.53;5044168;28;19916;-85
2023/11/25 01:03:51;;;;;;;;;;;;;;;7.58;nan;99878.09;5039259;28;19992;-85
2023/11/25 01:06:17;;;;;;;;;;;;;;;7.53;nan;99883.34;5036716;28;20407;-85
2023/11/25 01:08:43;;;;;;;;;;;;;;;7.51;nan;99882.00;5037537;28;19987;-84
2023/11/25 01:11:08;;;;;;;;;;;;;;;7.53;nan;99883.34;5038720;28;20377;-85
2023/11/25 01:13:34;;;;;;;;;;;;;;;7.58;nan;99877.28;5040063;28;19959;-85
2023/11/25 01:16:00;;;;;;;;;;;;;;;7.62;nan;99891.72;5038794;28;19955;-86
2023/11/25 01:18:26;;;;;;;;;;;;;;;7.61;nan;99886.66;5039852;28;19936;-84
2023/11/25 01:20:55;;;;;;;;;;;;;;;7.60;nan;99893.03;5040196;28;19983;-85
2023/11/25 01:23:25;;;;;;;;;;;;;;;7.60;nan;99912.50;5039068;28;20622;-86
2023/11/25 01:25:50;;;;;;;;;;;;;;;7.63;nan;99919.19;5044607;28;20478;-85
2023/11/25 01:28:16;;;;;;;;;;;;;;;7.65;nan;99922.41;5039289;28;19951;-85
2023/11/25 01:30:41;;;;;;;;;;;;;;;7.66;nan;99934.69;5039497;28;19927;-85
2023/11/25 01:33:06;;;;;;;;;;;;;;;7.67;nan;99930.97;5031699;28;20008;-85
2023/11/25 01:35:32;;;;;;;;;;;;;;;7.66;nan;99937.34;5037107;28;20389;-85
2023/11/25 01:37:58;;;;;;;;;;;;;;;7.67;nan;99942.44;5035474;28;19928;-84
2023/11/25 01:40:23;;;;;;;;;;;;;;;7.69;nan;99939.53;5039677;28;20340;-85
2023/11/25 01:42:49;;;;;;;;;;;;;;;7.70;nan;99947.25;5036299;28;19917;-84
2023/11/25 01:45:15;;;;;;;;;;;;;;;7.71;nan;99945.41;5040328;28;19925;-86
2023/11/25 01:47:41;;;;;;;;;;;;;;;7.75;nan;99949.22;5036480;28;19994;-85
2023/11/25 01:50:08;;;;;;;;;;;;;;;7.76;nan;99940.97;5040801;28;19972;-85
2023/11/25 01:52:35;;;;;;;;;;;;;;;7.78;nan;99948.72;5040951;28;19923;-85
2023/11/25 01:55:01;;;;;;;;;;;;;;;7.78;nan;99944.19;5044399;28;19921;-85
2023/11/25 01:57:27;;;;;;;;;;;;;;;7.80;nan;99950.06;5040597;28;19924;-85
2023/11/25 01:59:53;;;;;;;;;;;;;;;7.82;nan;99947.16;5037748;28;20389;-85
2023/11/25 02:02:21;;;;;;;;;;;;;;;7.80;nan;99946.59;5044815;28;19920;-86
2023/11/25 02:04:47;;;;;;;;;;;;;;;7.81;nan;99948.22;5040061;28;19917;-86
2023/11/25 02:07:12;;;;;;;;;;;;;;;7.80;nan;99947.41;5035438;28;19924;-86
2023/11/25 02:09:38;;;;;;;;;;;;;;;7.82;nan;99949.81;5044432;28;20628;-84
2023/11/25 02:12:04;;;;;;;;;;;;;;;7.82;nan;99950.63;5037082;28;19924;-85
2023/11/25 02:14:30;;;;;;;;;;;;;;;7.83;nan;99956.75;5036196;28;19935;-86
2023/11/25 02:16:55;;;;;;;;;;;;;;;7.81;nan;99958.88;5042010;28;19917;-84
2023/11/25 02:19:21;;;;;;;;;;;;;;;7.81;nan;99953.53;5040861;28;20004;-85
2023/11/25 02:21:47;;;;;;;;;;;;;;;7.78;nan;99954.03;5046384;28;19917;-86
2023/11/25 02:24:13;;;;;;;;;;;;;;;7.78;nan;99954.03;5044891;28;20033;-86
2023/11/25 02:26:38;;;;;;;;;;;;;;;7.80;nan;99954.59;5042500;28;19979;-86
2023/11/25 02:29:05;;;;;;;;;;;;;;;7.76;nan;99956.97;5042263;28;20361;-85
2023/11/25 02:31:30;;;;;;;;;;;;;;;7.73;nan;99962.00;5046280;28;19928;-85
2023/11/25 02:33:56;;;;;;;;;;;;;;;7.70;nan;99965.94;5044668;28;20317;-85
2023/11/25 02:36:23;;;;;;;;;;;;;;;7.71;nan;99964.88;5046173;28;19917;-84
2023/11/25 02:38:49;;;;;;;;;;;;;;;7.72;nan;99971.00;5050515;28;19975;-84
2023/11/25 02:41:15;;;;;;;;;;;;;;;7.72;nan;99965.69;5043378;28;19924;-85
2023/11/25 02:43:40;;;;;;;;;;;;;;;7.71;nan;99974.75;5045284;28;19963;-86
2023/11/25 02:46:06;;;;;;;;;;;;;;;7.71;nan;99980.88;5041312;28;19999;-85
2023/11/25 02:48:32;;;;;;;;;;;;;;;7.70;nan;99989.13;5050403;28;19927;-85
2023/11/25 02:50:57;;;;;;;;;;;;;;;7.72;nan;99989.69;5040399;28;19933;-85
2023/11/25 02:53:23;;;;;;;;;;;;;;;7.74;nan;99995.59;5038539;28;20457;-85
2023/11/25 02:55:49;;;;;;;;;;;;;;;7.74;nan;99998.25;5043311;28;19917;-85
2023/11/25 02:58:15;;;;;;;;;;;;;;;7.74;nan;100006.25;5041105;28;19928;-86
2023/11/25 03:00:40;;;;;;;;;;;;;;;7.73;nan;100004.66;5037069;28;19973;-85
2023/11/25 03:03:22;;;;;;;;;;;;;;;7.73;nan;100007.31;5033103;28;19920;-85
2023/11/25 03:05:52;;;;;;;;;;;;;;;7.75;nan;100021.22;5043630;28;19933;-85
2023/11/25 03:08:18;;;;;;;;;;;;;;;7.76;nan;100026.28;5042886;28;20377;-86
2023/11/25 03:10:46;;;;;;;;;;;;;;;7.79;nan;100025.78;5030502;28;19979;-85
2023/11/25 03:13:12;;;;;;;;;;;;;;;7.82;nan;100037.81;5043084;28;19999;-86
2023/11/25 03:15:38;;;;;;;;;;;;;;;7.83;nan;100037.56;5043476;28;20520;-85
2023/11/25 03:18:07;;;;;;;;;;;;;;;7.87;nan;100037.88;5052491;28;19917;-85
2023/11/25 03:20:33;;;;;;;;;;;;;;;7.90;nan;100037.41;5040250;28;19921;-85
2023/11/25 03:22:59;;;;;;;;;;;;;;;7.88;nan;100044.81;5037534;28;19964;-85
2023/11/25 03:25:27;;;;;;;;;;;;;;;7.88;nan;100039.50;5040843;28;19971;-86
2023/11/25 03:27:53;;;;;;;;;;;;;;;7.87;nan;100048.56;5039669;28;19923;-85
2023/11/25 03:30:18;;;;;;;;;;;;;;;7.92;nan;100050.50;5040257;28;19929;-85
2023/11/25 03:32:43;;;;;;;;;;;;;;;7.91;nan;100056.88;5042009;28;20519;-86
2023/11/25 03:35:09;;;;;;;;;;;;;;;7.89;nan;100057.09;5041689;28;19924;-85
2023/11/25 03:37:34;;;;;;;;;;;;;;;7.86;nan;100063.75;5041403;28;19917;-85
2023/11/25 03:40:00;;;;;;;;;;;;;;;7.86;nan;100068.28;5040311;28;20285;-85
2023/11/25 03:42:25;;;;;;;;;;;;;;;7.89;nan;100070.44;5041268;28;20005;-85
2023/11/25 03:44:51;;;;;;;;;;;;;;;7.93;nan;100074.25;5046221;28;20007;-85
2023/11/25 03:47:16;;;;;;;;;;;;;;;7.94;nan;100070.53;5040492;28;20409;-85
2023/11/25 03:49:42;;;;;;;;;;;;;;;7.95;nan;100074.81;5045135;28;19932;-84
2023/11/25 03:52:07;;;;;;;;;;;;;;;7.92;nan;100077.97;5044113;28;19921;-85
2023/11/25 03:54:35;;;;;;;;;;;;;;;7.93;nan;100076.91;5044014;28;19976;-85
2023/11/25 03:57:00;;;;;;;;;;;;;;;7.96;nan;100078.28;5039683;28;19966;-85
2023/11/25 03:59:26;;;;;;;;;;;;;;;7.92;nan;100072.66;5040698;28;19948;-85
2023/11/25 04:01:51;;;;;;;;;;;;;;;7.92;nan;100072.66;5045901;28;19999;-85
2023/11/25 04:04:17;;;;;;;;;;;;;;;7.90;nan;100085.44;5044280;28;19932;-86
2023/11/25 04:06:42;;;;;;;;;;;;;;;7.92;nan;100080.66;5040690;28;19924;-85
2023/11/25 04:09:08;;;;;;;;;;;;;;;7.91;nan;100092.38;5041948;28;19929;-85
2023/11/25 04:11:33;;;;;;;;;;;;;;;7.89;nan;100089.13;5044101;28;19920;-86
2023/11/25 04:13:59;;;;;;;;;;;;;;;7.87;nan;100089.38;5036385;28;20182;-85
2023/11/25 04:16:25;;;;;;;;;;;;;;;7.87;nan;100099.22;5038058;28;19917;-85
2023/11/25 04:18:50;;;;;;;;;;;;;;;7.85;nan;100094.13;5040966;28;19916;-85
2023/11/25 04:21:20;;;;;;;;;;;;;;;7.84;nan;100105.06;5044829;28;19931;-85
2023/11/25 04:23:47;;;;;;;;;;;;;;;7.82;nan;100099.16;5044881;28;19925;-85
2023/11/25 04:26:14;;;;;;;;;;;;;;;7.80;nan;100098.59;5033463;28;19928;-86
2023/11/25 04:28:39;;;;;;;;;;;;;;;7.81;nan;100105.56;5037993;28;19921;-85
2023/11/25 04:31:05;;;;;;;;;;;;;;;7.84;nan;100102.38;5040145;28;20350;-85
2023/11/25 04:33:31;;;;;;;;;;;;;;;7.83;nan;100096.25;5024848;28;19924;-85
2023/11/25 04:35:57;;;;;;;;;;;;;;;7.85;nan;100106.66;5032196;28;19921;-86
2023/11/25 04:38:23;;;;;;;;;;;;;;;7.84;nan;100103.19;5037572;28;19917;-86
2023/11/25 04:40:49;;;;;;;;;;;;;;;7.85;nan;100109.34;5032585;28;19980;-85
2023/11/25 04:43:15;;;;;;;;;;;;;;;7.86;nan;100117.09;5038089;28;20484;-85
2023/11/25 04:45:40;;;;;;;;;;;;;;;7.88;nan;100119.50;5033837;28;19917;-85
2023/11/25 04:48:05;;;;;;;;;;;;;;;7.87;nan;100117.91;5035081;28;19924;-85
2023/11/25 04:50:31;;;;;;;;;;;;;;;7.85;nan;100123.47;5038338;28;19928;-85
2023/11/25 04:52:57;;;;;;;;;;;;;;;7.80;nan;100120.75;5035960;28;19956;-86
2023/11/25 04:55:27;;;;;;;;;;;;;;;7.75;nan;100119.88;5034719;28;19960;-85
2023/11/25 04:57:53;;;;;;;;;;;;;;;7.69;nan;100116.31;5038141;28;19916;-84
2023/11/25 05:00:18;;;;;;;;;;;;;;;7.65;nan;100114.38;5034134;28;19932;-85
2023/11/25 05:02:43;;;;;;;;;;;;;;;7.62;nan;100112.22;5043080;28;19921;-85
2023/11/25 05:05:09;;;;;;;;;;;;;;;7.60;nan;100107.13;5037863;28;19923;-85
2023/11/25 05:07:35;;;;;;;;;;;;;;;7.59;nan;100118.84;5036274;28;19924;-85
2023/11/25 05:10:01;;;;;;;;;;;;;;;7.60;nan;100122.31;5030666;28;19929;-84
2023/11/25 05:12:27;;;;;;;;;;;;;;;7.60;nan;100124.97;5039415;28;20530;-85
2023/11/25 05:14:52;;;;;;;;;;;;;;;7.59;nan;100118.84;5033169;28;20373;-85
2023/11/25 05:17:18;;;;;;;;;;;;;;;7.58;nan;100126.03;5038682;28;20008;-85
2023/11/25 05:19:44;;;;;;;;;;;;;;;7.60;nan;100135.63;5038161;28;19956;-84
2023/11/25 05:22:09;;;;;;;;;;;;;;;7.57;nan;100129.75;5038668;28;19921;-84
2023/11/25 05:24:35;;;;;;;;;;;;;;;7.57;nan;100134.28;5032209;28;20039;-84
2023/11/25 05:27:00;;;;;;;;;;;;;;;7.56;nan;100136.13;5036614;28;19916;-85
2023/11/25 05:29:26;;;;;;;;;;;;;;;7.56;nan;100138.00;5037381;28;20589;-84
2023/11/25 05:31:51;;;;;;;;;;;;;;;7.55;nan;100139.84;5038567;28;19924;-85
2023/11/25 05:34:16;;;;;;;;;;;;;;;7.56;nan;100141.47;5036504;28;19987;-85
2023/11/25 05:36:42;;;;;;;;;;;;;;;7.54;nan;100142.72;5033687;28;20432;-85
2023/11/25 05:39:12;;;;;;;;;;;;;;;7.53;nan;100144.59;5030186;28;20368;-85
2023/11/25 05:41:37;;;;;;;;;;;;;;;7.53;nan;100151.78;5034217;28;19959;-84
2023/11/25 05:44:06;;;;;;;;;;;;;;;7.51;nan;100152.03;5033476;28;20496;-85
2023/11/25 05:46:32;;;;;;;;;;;;;;;7.51;nan;100153.88;5032250;28;19947;-85
2023/11/25 05:48:57;;;;;;;;;;;;;;;7.53;nan;100151.78;5031691;28;20289;-84
2023/11/25 05:51:32;;;;;;;;;;;;;;;7.52;nan;100148.31;5037190;28;20309;-85
2023/11/25 05:53:57;;;;;;;;;;;;;;;7.51;nan;100157.34;5037243;28;19970;-85
2023/11/25 05:56:26;;;;;;;;;;;;;;;7.51;nan;100146.69;5037924;28;20416;-84
2023/11/25 05:58:52;;;;;;;;;;;;;;;7.52;nan;100161.63;5039009;28;19960;-84
2023/11/25 06:01:17;;;;;;;;;;;;;;;7.53;nan;100157.91;5038253;28;19964;-84
2023/11/25 06:03:43;;;;;;;;;;;;;;;7.53;nan;100157.09;5038408;28;20320;-85
2023/11/25 06:06:09;;;;;;;;;;;;;;;7.53;nan;100165.09;5035587;28;19921;-84
2023/11/25 06:08:35;;;;;;;;;;;;;;;7.53;nan;100165.09;5040296;28;19924;-85
2023/11/25 06:11:00;;;;;;;;;;;;;;;7.56;nan;100173.44;5035878;28;19920;-84
2023/11/25 06:13:25;;;;;;;;;;;;;;;7.54;nan;100172.88;5040043;28;19924;-84
2023/11/25 06:15:52;;;;;;;;;;;;;;;7.53;nan;100178.44;5038933;28;20297;-84
2023/11/25 06:18:20;;;;;;;;;;;;;;;7.54;nan;100183.56;5039425;28;20024;-84
2023/11/25 06:20:46;;;;;;;;;;;;;;;7.54;nan;100183.56;5043991;28;20367;-85
2023/11/25 06:23:11;;;;;;;;;;;;;;;7.55;nan;100189.69;5037112;28;20349;-84
2023/11/25 06:25:37;;;;;;;;;;;;;;;7.53;nan;100189.09;5041465;28;20594;-85
2023/11/25 06:28:03;;;;;;;;;;;;;;;7.50;nan;100190.38;5036552;28;19917;-84
2023/11/25 06:30:29;;;;;;;;;;;;;;;7.50;nan;100198.38;5039832;28;19967;-85
2023/11/25 06:32:54;;;;;;;;;;;;;;;7.51;nan;100188.53;5036711;28;20423;-84
2023/11/25 06:35:19;;;;;;;;;;;;;;;7.52;nan;100190.94;5038654;28;20019;-85
2023/11/25 06:37:45;;;;;;;;;;;;;;;7.51;nan;100192.00;5036697;28;20011;-85
2023/11/25 06:40:13;;;;;;;;;;;;;;;7.51;nan;100194.66;5041443;28;19956;-85
2023/11/25 06:42:39;;;;;;;;;;;;;;;7.52;nan;100196.28;5041523;28;19925;-85
2023/11/25 06:45:05;;;;;;;;;;;;;;;7.49;nan;100202.09;5039999;28;20373;-85
2023/11/25 06:47:30;;;;;;;;;;;;;;;7.48;nan;100199.69;5041681;28;19925;-84
2023/11/25 06:49:56;;;;;;;;;;;;;;;7.48;nan;100205.00;5038616;28;19924;-83
2023/11/25 06:52:21;;;;;;;;;;;;;;;7.45;nan;100206.31;5019607;28;20519;-85
2023/11/25 06:54:46;;;;;;;;;;;;;;;7.46;nan;100204.44;5043246;28;19917;-84
2023/11/25 06:57:12;;;;;;;;;;;;;;;7.44;nan;100203.88;5039607;28;20405;-84
2023/11/25 06:59:44;;;;;;;;;;;;;;;7.49;nan;100207.44;5037258;28;19924;-85
2023/11/25 07:02:10;;;;;;;;;;;;;;;7.47;nan;100214.88;5045321;28;19951;-85
2023/11/25 07:04:35;;;;;;;;;;;;;;;7.45;nan;100222.31;5040506;28;20351;-85
2023/11/25 07:07:00;;;;;;;;;;;;;;;7.42;nan;100225.44;5041891;28;19924;-85
2023/11/25 07:09:26;;;;;;;;;;;;;;;7.39;nan;100217.13;5042186;28;19925;-85
2023/11/25 07:11:53;;;;;;;;;;;;;;;7.37;nan;100209.38;5036038;28;20631;-85
2023/11/25 07:14:18;;;;;;;;;;;;;;;7.34;nan;100215.16;5042806;28;20285;-85
2023/11/25 07:16:45;;;;;;;;;;;;;;;7.35;nan;100216.78;5039737;28;20372;-84
2023/11/25 07:19:11;;;;;;;;;;;;;;;7.36;nan;100217.59;5041294;28;20535;-84
2023/11/25 07:21:36;;;;;;;;;;;;;;;7.37;nan;100224.56;5041047;28;19928;-84
2023/11/25 07:24:02;;;;;;;;;;;;;;;7.35;nan;100232.75;5043873;28;20821;-85
2023/11/25 07:26:28;;;;;;;;;;;;;;;7.37;nan;100230.69;5041020;28;19917;-85
2023/11/25 07:28:53;;;;;;;;;;;;;;;7.38;nan;100232.31;5037382;28;19921;-84
2023/11/25 07:31:21;;;;;;;;;;;;;;;7.39;nan;100223.28;5039986;28;19932;-85
2023/11/25 07:33:46;;;;;;;;;;;;;;;7.40;nan;100235.53;5039279;28;19944;-86
2023/11/25 07:36:12;;;;;;;;;;;;;;;7.43;nan;100234.25;5042874;28;19939;-84
2023/11/25 07:38:37;;;;;;;;;;;;;;;7.46;nan;100245.25;5044932;28;19924;-85
2023/11/25 07:41:03;;;;;;;;;;;;;;;7.44;nan;100243.88;5036580;28;20376;-85
2023/11/25 07:43:28;;;;;;;;;;;;;;;7.43;nan;100248.38;5036584;28;19951;-85
2023/11/25 07:45:53;;;;;;;;;;;;;;;7.48;nan;100251.13;5037865;28;19975;-85
2023/11/25 07:48:19;;;;;;;;;;;;;;;7.46;nan;100252.44;5038300;28;19920;-85
2023/11/25 07:50:45;;;;;;;;;;;;;;;7.41;nan;100250.50;5037855;28;19925;-84
2023/11/25 07:53:14;;;;;;;;;;;;;;;7.40;nan;100259.53;5034754;28;19937;-84
2023/11/25 07:55:39;;;;;;;;;;;;;;;7.42;nan;100264.63;5039512;28;19928;-85
2023/11/25 07:58:05;;;;;;;;;;;;;;;7.44;nan;100266.00;5043811;28;19920;-84
2023/11/25 08:00:31;;;;;;;;;;;;;;;7.41;nan;100271.81;5038932;28;19925;-84
2023/11/25 08:02:58;;;;;;;;;;;;;;;7.42;nan;100275.28;5038968;28;20432;-85
2023/11/25 08:05:24;;;;;;;;;;;;;;;7.45;nan;100270.28;5041228;28;19920;-85
2023/11/25 08:07:53;;;;;;;;;;;;;;;7.49;nan;100270.59;5037757;28;20003;-85
2023/11/25 08:10:19;;;;;;;;;;;;;;;7.53;nan;100277.06;5040271;28;19924;-85
2023/11/25 08:12:45;;;;;;;;;;;;;;;7.54;nan;100273.34;5040125;28;19921;-85
2023/11/25 08:15:13;;;;;;;;;;;;;;;7.58;nan;100277.19;5039291;28;20795;-85
2023/11/25 08:17:39;;;;;;;;;;;;;;;7.58;nan;100280.66;5031560;28;20014;-85
2023/11/25 08:20:05;;;;;;;;;;;;;;;7.58;nan;100282.50;5038260;28;20343;-85
2023/11/25 08:22:31;;;;;;;;;;;;;;;7.61;nan;100283.88;5040954;28;19924;-85
2023/11/25 08:24:57;;;;;;;;;;;;;;;7.62;nan;100288.97;5037331;28;19920;-85
2023/11/25 08:27:22;;;;;;;;;;;;;;;7.64;nan;100283.41;5036859;28;20361;-86
2023/11/25 08:29:48;;;;;;;;;;;;;;;7.67;nan;100286.41;5034274;28;19929;-85
2023/11/25 08:32:13;;;;;;;;;;;;;;;7.71;nan;100289.38;5037249;28;19921;-84
2023/11/25 08:34:39;;;;;;;;;;;;;;;7.75;nan;100290.53;5040699;28;19921;-85
2023/11/25 08:37:05;;;;;;;;;;;;;;;7.82;nan;100280.53;5038912;28;19925;-85
2023/11/25 08:39:32;;;;;;;;;;;;;;;7.90;nan;100282.81;5040395;28;19951;-84
2023/11/25 08:41:59;;;;;;;;;;;;;;;8.02;nan;100288.03;5036510;28;19921;-84
2023/11/25 08:44:25;;;;;;;;;;;;;;;8.14;nan;100278.91;5038142;28;19924;-85
2023/11/25 08:46:53;;;;;;;;;;;;;;;8.25;nan;100284.41;5036001;28;19921;-85
2023/11/25 08:49:21;;;;;;;;;;;;;;;8.32;nan;100282.38;5033219;28;19925;-86
2023/11/25 08:51:47;;;;;;;;;;;;;;;8.35;nan;100279.25;5040909;28;19917;-85
2023/11/25 08:54:18;;;;;;;;;;;;;;;8.31;nan;100272.75;5036187;28;20784;-85
2023/11/25 08:56:47;;;;;;;;;;;;;;;8.30;nan;100282.63;5037054;28;19924;-86
2023/11/25 08:59:17;;;;;;;;;;;;;;;8.37;nan;100298.50;5037585;28;20634;-85
2023/11/25 09:01:43;;;;;;;;;;;;;;;8.41;nan;100288.94;5038017;28;19931;-85
2023/11/25 09:04:09;;;;;;;;;;;;;;;8.46;nan;100286.38;5041254;28;20011;-86
2023/11/25 09:06:39;;;;;;;;;;;;;;;8.52;nan;100279.22;5023593;28;20280;-85
2023/11/25 09:09:07;;;;;;;;;;;;;;;8.64;nan;100278.09;5039658;28;19921;-85
2023/11/25 09:11:33;;;;;;;;;;;;;;;8.71;nan;100285.91;5039931;28;20651;-86
2023/11/25 09:13:58;;;;;;;;;;;;;;;8.79;nan;100285.47;5006943;28;19965;-86
2023/11/25 09:16:25;;;;;;;;;;;;;;;8.88;nan;100286.66;5040046;28;19924;-93
2023/11/25 09:18:50;;;;;;;;;;;;;;;8.96;nan;100288.91;5040683;28;19924;-84
2023/11/25 09:21:15;;;;;;;;;;;;;;;8.99;nan;100279.59;5048713;28;19917;-88
2023/11/25 09:23:43;;;;;;;;;;;;;;;8.99;nan;100268.91;5040465;28;19925;-90
2023/11/25 09:26:11;;;;;;;;;;;;;;;9.00;nan;100270.53;5050423;28;19963;-89
2023/11/25 09:28:37;;;;;;;;;;;;;;;9.04;nan;100271.63;5050425;28;19959;-90
2023/11/25 09:31:03;;;;;;;;;;;;;;;9.07;nan;100266.59;5048257;28;20278;-89
2023/11/25 09:33:29;;;;;;;;;;;;;;;9.08;nan;100273.56;5046229;28;20810;-85
2023/11/25 09:35:56;;;;;;;;;;;;;;;9.14;nan;100271.75;5028045;28;19916;-88
2023/11/25 09:38:21;;;;;;;;;;;;;;;9.24;nan;100269.19;5031365;28;19917;-90
2023/11/25 09:40:48;;;;;;;;;;;;;;;9.32;nan;100276.75;5037729;28;20416;-92
2023/11/25 09:43:14;;;;;;;;;;;;;;;9.39;nan;100274.72;5047917;28;19917;-88
2023/11/25 09:45:41;;;;;;;;;;;;;;;9.47;nan;100286.00;5048386;28;19913;-92
2023/11/25 09:48:07;;;;;;;;;;;;;;;9.51;nan;100276.41;5053889;28;19975;-93
2023/11/25 09:50:34;;;;;;;;;;;;;;;9.61;nan;100276.53;5033329;28;19921;-91
2023/11/25 09:53:04;;;;;;;;;;;;;;;9.71;nan;100276.63;5046421;28;19917;-89
2023/11/25 09:55:31;;;;;;;;;;;;;;;9.81;nan;100276.72;5049861;28;19971;-92
2023/11/25 09:58:01;;;;;;;;;;;;;;;9.93;nan;100268.53;5046953;28;20413;-88
2023/11/25 10:00:27;;;;;;;;;;;;;;;9.98;nan;100266.69;5044111;28;19948;-89
2023/11/25 10:02:54;;;;;;;;;;;;;;;10.10;nan;100268.38;5045493;28;20631;-90
2023/11/25 10:05:20;;;;;;;;;;;;;;;10.22;nan;100266.34;5049264;28;19917;-88
2023/11/25 10:07:46;;;;;;;;;;;;;;;10.36;nan;100259.50;5048747;28;20331;-84
2023/11/25 10:10:13;;;;;;;;;;;;;;;10.49;nan;100271.63;5041244;28;19980;-89
2023/11/25 10:12:41;;;;;;;;;;;;;;;10.59;nan;100267.16;5042907;28;19991;-88
2023/11/25 10:15:08;;;;;;;;;;;;;;;10.70;nan;100262.63;5025844;28;19917;-86
2023/11/25 10:17:33;;;;;;;;;;;;;;;10.80;nan;100269.94;5042059;28;19916;-91
2023/11/25 10:20:27;;;;;;;;;;;;;;;10.86;nan;100266.19;5052263;28;19917;-90
2023/11/25 10:22:58;;;;;;;;;;;;;;;10.85;nan;100264.59;5051011;28;19932;-89
2023/11/25 10:25:27;;;;;;;;;;;;;;;10.81;nan;100269.66;5044353;28;19944;-88
2023/11/25 10:27:56;;;;;;;;;;;;;;;10.78;nan;100258.66;5047545;28;19917;-92
2023/11/25 10:30:23;;;;;;;;;;;;;;;10.69;nan;100260.22;5045348;28;19921;-92
2023/11/25 10:32:49;;;;;;;;;;;;;;;10.61;nan;100260.72;5045575;28;19921;-92
2023/11/25 10:35:14;;;;;;;;;;;;;;;10.52;nan;100255.84;5052498;28;20315;-89
2023/11/25 10:37:40;;;;;;;;;;;;;;;10.56;nan;100256.13;5042294;28;19925;-92
2023/11/25 10:40:09;;;;;;;;;;;;;;;10.59;nan;100251.06;5045451;28;19917;-90
2023/11/25 10:42:36;;;;;;;;;;;;;;;10.63;nan;100246.00;5058113;28;19920;-90
2023/11/25 10:45:04;;;;;;;;;;;;;;;10.57;nan;100247.00;5046338;28;19927;-85
2023/11/25 10:47:36;;;;;;;;;;;;;;;10.55;nan;100244.59;5050414;28;19974;-87
2023/11/25 10:50:02;;;;;;;;;;;;;;;10.53;nan;100248.59;5045663;28;19921;-94
2023/11/25 10:52:32;;;;;;;;;;;;;;;10.50;nan;100265.22;5044797;28;19971;-87
2023/11/25 10:54:58;;;;;;;;;;;;;;;10.48;nan;100254.75;5047568;28;19955;-89
2023/11/25 10:57:24;;;;;;;;;;;;;;;10.48;nan;100260.09;5055783;28;19920;-90
2023/11/25 10:59:56;;;;;;;;;;;;;;;10.54;nan;100253.69;5047349;28;19913;-90
2023/11/25 11:02:29;;;;;;;;;;;;;;;10.56;nan;100262.28;5039878;28;19921;-93
2023/11/25 11:04:58;;;;;;;;;;;;;;;10.61;nan;100261.53;5048412;28;19996;-89
2023/11/25 11:07:25;;;;;;;;;;;;;;;10.67;nan;100265.84;5042088;28;20403;-89
2023/11/25 11:09:53;;;;;;;;;;;;;;;10.73;nan;100256.75;5042228;28;19925;-88
2023/11/25 11:12:38;;;;;;;;;;;;;;;10.78;nan;100253.31;5049844;28;20376;-91
2023/11/25 11:15:09;;;;;;;;;;;;;;;10.78;nan;100253.31;5042940;28;19917;-89
2023/11/25 11:17:44;;;;;;;;;;;;;;;10.78;nan;100251.44;5048617;28;19925;-90
2023/11/25 11:20:12;;;;;;;;;;;;;;;10.76;nan;100255.41;5050393;28;20749;-86
2023/11/25 11:22:42;;;;;;;;;;;;;;;10.73;nan;100245.22;5042578;28;19929;-88
2023/11/25 11:25:09;;;;;;;;;;;;;;;10.69;nan;100249.50;5041909;28;19924;-91
2023/11/25 11:27:55;;;;;;;;;;;;;;;10.70;nan;100241.19;5044195;28;19920;-87
2023/11/25 11:30:32;;;;;;;;;;;;;;;10.83;nan;100246.09;5038236;28;20384;-86
2023/11/25 11:32:59;;;;;;;;;;;;;;;10.99;nan;100235.44;5048470;28;19920;-85
2023/11/25 11:35:37;;;;;;;;;;;;;;;11.12;nan;100235.72;5039181;28;19948;-88
2023/11/25 11:38:21;;;;;;;;;;;;;;;11.37;nan;100239.56;5045444;28;20003;-87
2023/11/25 11:40:47;;;;;;;;;;;;;;;11.67;nan;100250.34;5052356;28;19921;-89
2023/11/25 11:43:18;;;;;;;;;;;;;;;11.83;nan;100242.31;5048315;28;19927;-90
2023/11/25 11:45:44;;;;;;;;;;;;;;;11.97;nan;100244.19;5045810;28;19921;-85
2023/11/25 11:48:13;;;;;;;;;;;;;;;12.04;nan;100238.56;5037949;28;19917;-88
2023/11/25 11:50:41;;;;;;;;;;;;;;;12.10;nan;100249.00;5036705;28;19937;-88
2023/11/25 11:53:12;;;;;;;;;;;;;;;12.20;nan;100244.69;5040822;28;19956;-92
2023/11/25 11:55:38;;;;;;;;;;;;;;;12.32;nan;100250.59;5042179;28;19963;-87
2023/11/25 11:58:09;;;;;;;;;;;;;;;12.40;nan;100250.06;5036298;28;20372;-87
2023/11/25 12:00:36;;;;;;;;;;;;;;;12.53;nan;100248.66;5042203;28;19916;-86
2023/11/25 12:03:02;;;;;;;;;;;;;;;12.53;nan;100241.41;5044310;28;20023;-90
2023/11/25 12:05:28;;;;;;;;;;;;;;;12.69;nan;100240.28;5044002;28;19921;-88
2023/11/25 12:07:53;;;;;;;;;;;;;;;12.84;nan;100244.81;5048932;28;20526;-92
2023/11/25 12:10:19;;;;;;;;;;;;;;;12.87;nan;100233.50;5047556;28;20115;-88
2023/11/25 12:12:47;;;;;;;;;;;;;;;12.82;nan;100230.84;5046620;28;19943;-87
2023/11/25 12:15:13;;;;;;;;;;;;;;;12.83;nan;100229.75;5038725;28;19975;-90
2023/11/25 12:17:40;;;;;;;;;;;;;;;13.01;nan;100239.91;5037576;28;19925;-85
2023/11/25 12:20:08;;;;;;;;;;;;;;;13.34;nan;100237.59;5039911;28;19931;-87
2023/11/25 12:22:34;;;;;;;;;;;;;;;13.53;nan;100226.97;5033786;28;19923;-87
2023/11/25 12:24:59;;;;;;;;;;;;;;;13.68;nan;100244.91;5035947;28;19917;-89
2023/11/25 12:27:27;;;;;;;;;;;;;;;13.76;nan;100241.59;5049891;28;20426;-88
2023/11/25 12:29:52;;;;;;;;;;;;;;;13.77;nan;100240.53;5036333;28;20019;-87
2023/11/25 12:32:18;;;;;;;;;;;;;;;13.80;nan;100245.34;5046912;28;20012;-88
2023/11/25 12:34:45;;;;;;;;;;;;;;;13.69;nan;100241.13;5033379;28;19948;-86
2023/11/25 12:37:12;;;;;;;;;;;;;;;13.57;nan;100239.59;5027118;28;19992;-87
2023/11/25 12:39:41;;;;;;;;;;;;;;;13.46;nan;100248.00;5023142;28;19931;-86
2023/11/25 12:42:08;;;;;;;;;;;;;;;13.36;nan;100243.50;5026133;28;19939;-88
2023/11/25 12:44:50;;;;;;;;;;;;;;;13.35;nan;100243.78;5037415;28;19974;-86
2023/11/25 12:47:15;;;;;;;;;;;;;;;13.40;nan;100252.63;5036014;28;19917;-91
2023/11/25 12:49:41;;;;;;;;;;;;;;;13.36;nan;100254.28;5031597;28;19940;-88
2023/11/25 12:52:17;;;;;;;;;;;;;;;13.58;nan;100251.97;5036798;28;20460;-89
2023/11/25 12:54:46;;;;;;;;;;;;;;;14.15;nan;100250.44;5023622;28;19928;-89
2023/11/25 12:57:30;;;;;;;;;;;;;;;14.36;nan;100261.84;5040677;28;20490;-88
2023/11/25 12:59:56;;;;;;;;;;;;;;;14.35;nan;100248.63;5038654;28;19917;-88
2023/11/25 13:02:22;;;;;;;;;;;;;;;14.34;nan;100250.50;5041388;28;20481;-91
2023/11/25 13:04:50;;;;;;;;;;;;;;;14.17;nan;100252.84;5040089;28;20012;-86